Time;durP1;ratioP1;P1;durP2;ratioP2;P2;SDS_P1;SDS_P2;PMS_P1;PMS_P2;Temp;Humidity;BMP_temperature;BMP_pressure;BME280_temperature;BME280_humidity;BME280_pressure;Samples;Min_cycle;Max_cycle;Signal;HPM_P1;HPM_P2
2022/12/03 00:01:16;;;;;;;8.25;3.72;;;;;;;;;;5073281;28;20025;-41
2022/12/03 00:03:42;;;;;;;9.18;4.32;;;;;;;;;;5073218;28;20030;-41
2022/12/03 00:06:07;;;;;;;10.38;3.80;;;;;;;;;;5073093;28;20044;-41
2022/12/03 00:08:33;;;;;;;7.43;4.47;;;;;;;;;;5073141;28;20103;-41
2022/12/03 00:10:58;;;;;;;13.88;3.05;;;;;;;;;;5073239;28;20043;-41
2022/12/03 00:13:23;;;;;;;8.55;4.40;;;;;;;;;;5072910;28;20382;-41
2022/12/03 00:15:49;;;;;;;12.88;4.47;;;;;;;;;;5073138;28;20066;-41
2022/12/03 00:18:14;;;;;;;5.25;2.83;;;;;;;;;;5072853;28;20423;-41
2022/12/03 00:20:39;;;;;;;9.13;4.35;;;;;;;;;;5072755;28;20036;-41
2022/12/03 00:23:05;;;;;;;8.18;4.00;;;;;;;;;;5073026;28;20029;-41
2022/12/03 00:25:30;;;;;;;6.38;4.05;;;;;;;;;;5072883;28;20048;-41
2022/12/03 00:27:55;;;;;;;7.53;3.40;;;;;;;;;;5072654;28;20258;-41
2022/12/03 00:30:21;;;;;;;7.32;4.30;;;;;;;;;;5072881;28;20036;-41
2022/12/03 00:32:46;;;;;;;6.55;4.20;;;;;;;;;;5071236;28;20371;-41
2022/12/03 00:35:11;;;;;;;9.20;5.07;;;;;;;;;;5072489;28;20056;-41
2022/12/03 00:37:37;;;;;;;6.47;3.28;;;;;;;;;;5072840;28;20030;-41
2022/12/03 00:40:04;;;;;;;6.40;3.03;;;;;;;;;;5072643;28;20456;-41
2022/12/03 00:42:29;;;;;;;4.90;3.75;;;;;;;;;;5072845;28;20123;-41
2022/12/03 00:44:54;;;;;;;5.13;2.85;;;;;;;;;;5072537;28;20170;-42
2022/12/03 00:47:20;;;;;;;5.57;2.92;;;;;;;;;;5072231;28;20012;-41
2022/12/03 00:49:45;;;;;;;7.18;2.58;;;;;;;;;;5072221;28;20467;-41
2022/12/03 00:52:11;;;;;;;5.05;3.72;;;;;;;;;;5072426;28;20021;-41
2022/12/03 00:54:36;;;;;;;9.70;4.60;;;;;;;;;;5072183;28;20052;-41
2022/12/03 00:57:01;;;;;;;5.57;3.47;;;;;;;;;;5072457;28;20506;-41
2022/12/03 00:59:27;;;;;;;8.27;3.60;;;;;;;;;;5072042;28;20121;-41
2022/12/03 01:01:52;;;;;;;6.10;3.35;;;;;;;;;;5070731;28;20030;-41
2022/12/03 01:04:17;;;;;;;8.70;3.60;;;;;;;;;;5070599;28;20115;-41
2022/12/03 01:06:43;;;;;;;4.88;3.35;;;;;;;;;;5071283;28;20378;-41
2022/12/03 01:09:08;;;;;;;5.40;3.28;;;;;;;;;;5071960;28;20050;-41
2022/12/03 01:11:37;;;;;;;3.55;2.78;;;;;;;;;;5072133;28;20029;-41
2022/12/03 01:14:14;;;;;;;7.95;4.13;;;;;;;;;;5071750;28;20107;-41
2022/12/03 01:16:40;;;;;;;8.50;3.55;;;;;;;;;;5072076;28;20036;-43
2022/12/03 01:19:06;;;;;;;6.07;3.63;;;;;;;;;;5071819;28;20024;-41
2022/12/03 01:21:31;;;;;;;5.78;3.28;;;;;;;;;;5071602;28;20036;-41
2022/12/03 01:23:57;;;;;;;4.55;2.75;;;;;;;;;;5071737;28;20031;-41
2022/12/03 01:26:24;;;;;;;8.25;3.83;;;;;;;;;;5071826;28;20036;-41
2022/12/03 01:28:49;;;;;;;6.65;4.30;;;;;;;;;;5071869;28;20034;-41
2022/12/03 01:33:58;;;;;;;5.93;3.40;;;;;;;;;;5071647;28;20497;-41
2022/12/03 01:36:24;;;;;;;4.03;3.17;;;;;;;;;;5071475;28;20060;-41
2022/12/03 01:38:49;;;;;;;7.22;3.50;;;;;;;;;;5071540;28;20039;-41
2022/12/03 01:41:18;;;;;;;5.13;3.25;;;;;;;;;;5071397;28;20111;-41
2022/12/03 01:43:43;;;;;;;8.93;4.22;;;;;;;;;;5071430;28;20064;-41
2022/12/03 01:46:12;;;;;;;7.43;4.40;;;;;;;;;;5071541;28;20071;-41
2022/12/03 01:48:37;;;;;;;8.65;3.35;;;;;;;;;;5071516;28;20029;-42
2022/12/03 01:51:03;;;;;;;6.32;4.03;;;;;;;;;;5071530;28;20447;-41
2022/12/03 01:53:28;;;;;;;9.25;4.70;;;;;;;;;;5071110;28;20098;-41
2022/12/03 01:55:54;;;;;;;8.93;3.38;;;;;;;;;;5071695;28;20058;-41
2022/12/03 01:58:21;;;;;;;7.10;3.50;;;;;;;;;;5071182;28;20074;-41
2022/12/03 02:00:46;;;;;;;6.50;3.85;;;;;;;;;;5071321;28;20085;-41
2022/12/03 02:03:24;;;;;;;10.15;6.45;;;;;;;;;;5069826;28;20041;-41
2022/12/03 02:05:49;;;;;;;5.68;3.33;;;;;;;;;;5071183;28;20040;-41
2022/12/03 02:08:32;;;;;;;5.93;3.05;;;;;;;;;;5071344;28;20529;-41
2022/12/03 02:11:01;;;;;;;7.05;3.67;;;;;;;;;;5071203;28;20037;-41
2022/12/03 02:13:26;;;;;;;7.80;3.25;;;;;;;;;;5071114;28;20090;-41
2022/12/03 02:15:52;;;;;;;6.00;3.50;;;;;;;;;;5071187;28;20483;-41
2022/12/03 02:18:17;;;;;;;5.30;3.22;;;;;;;;;;5074518;28;20483;-41
2022/12/03 02:20:54;;;;;;;6.32;3.20;;;;;;;;;;5075358;28;20036;-41
2022/12/03 02:23:28;;;;;;;5.05;2.88;;;;;;;;;;5075372;28;20025;-42
2022/12/03 02:25:53;;;;;;;5.57;2.72;;;;;;;;;;5075148;28;20083;-41
2022/12/03 02:28:18;;;;;;;5.30;2.78;;;;;;;;;;5075001;28;20462;-41
2022/12/03 02:30:44;;;;;;;5.25;2.65;;;;;;;;;;5074903;28;20036;-41
2022/12/03 02:33:09;;;;;;;3.95;2.65;;;;;;;;;;5075107;28;20111;-41
2022/12/03 02:35:35;;;;;;;4.15;3.17;;;;;;;;;;5074899;28;20036;-41
2022/12/03 02:38:21;;;;;;;4.13;3.30;;;;;;;;;;5074794;28;20103;-41
2022/12/03 02:40:48;;;;;;;10.82;3.65;;;;;;;;;;5074291;28;20036;-41
2022/12/03 02:43:14;;;;;;;3.83;2.17;;;;;;;;;;5073392;28;20099;-41
2022/12/03 02:45:43;;;;;;;4.63;2.75;;;;;;;;;;5074706;28;20112;-41
2022/12/03 02:48:10;;;;;;;5.55;3.22;;;;;;;;;;5074517;28;20013;-41
2022/12/03 02:50:40;;;;;;;6.82;3.88;;;;;;;;;;5074558;28;20490;-41
2022/12/03 02:53:07;;;;;;;4.05;2.72;;;;;;;;;;5074610;28;20036;-41
2022/12/03 02:55:33;;;;;;;4.05;2.67;;;;;;;;;;5074692;28;20052;-41
2022/12/03 02:57:59;;;;;;;4.75;2.88;;;;;;;;;;5074528;28;20068;-41
2022/12/03 03:00:24;;;;;;;6.32;3.10;;;;;;;;;;5074509;28;20032;-41
2022/12/03 03:02:50;;;;;;;8.48;4.47;;;;;;;;;;5074318;28;20020;-41
2022/12/03 03:05:16;;;;;;;8.40;3.75;;;;;;;;;;5074174;28;20055;-41
2022/12/03 03:07:42;;;;;;;6.63;3.42;;;;;;;;;;5074321;28;20032;-41
2022/12/03 03:10:10;;;;;;;4.10;2.70;;;;;;;;;;5074333;28;20035;-41
2022/12/03 03:12:36;;;;;;;3.75;2.58;;;;;;;;;;5074136;28;20025;-41
2022/12/03 03:15:01;;;;;;;5.45;2.60;;;;;;;;;;5072936;28;20648;-41
2022/12/03 03:17:27;;;;;;;4.47;3.03;;;;;;;;;;5074250;28;20027;-41
2022/12/03 03:19:52;;;;;;;5.97;3.40;;;;;;;;;;5074331;28;20387;-41
2022/12/03 03:22:17;;;;;;;8.85;4.35;;;;;;;;;;5073931;28;20386;-41
2022/12/03 03:24:43;;;;;;;6.35;3.65;;;;;;;;;;5074158;28;20082;-41
2022/12/03 03:27:08;;;;;;;4.90;2.97;;;;;;;;;;5073848;28;20355;-41
2022/12/03 03:29:34;;;;;;;5.20;2.55;;;;;;;;;;5055001;28;20044;-42
2022/12/03 03:32:00;;;;;;;8.10;3.63;;;;;;;;;;5073871;28;20020;-41
2022/12/03 03:34:26;;;;;;;4.63;3.13;;;;;;;;;;5074046;28;20035;-41
2022/12/03 03:36:51;;;;;;;7.63;5.07;;;;;;;;;;5073966;28;20024;-41
2022/12/03 03:39:16;;;;;;;4.28;2.53;;;;;;;;;;5073704;28;20086;-41
2022/12/03 03:41:44;;;;;;;5.82;3.95;;;;;;;;;;5073881;28;20020;-41
2022/12/03 03:44:09;;;;;;;9.55;4.22;;;;;;;;;;5073431;28;20036;-41
2022/12/03 03:46:36;;;;;;;4.88;2.70;;;;;;;;;;5073534;28;20036;-41
2022/12/03 03:49:02;;;;;;;8.27;3.58;;;;;;;;;;5073504;28;20487;-41
2022/12/03 03:51:28;;;;;;;5.70;2.95;;;;;;;;;;5073344;28;20021;-41
2022/12/03 03:53:53;;;;;;;4.57;2.25;;;;;;;;;;5073508;28;20441;-42
2022/12/03 03:56:20;;;;;;;4.70;3.35;;;;;;;;;;5073326;28;20394;-41
2022/12/03 03:58:45;;;;;;;5.65;3.67;;;;;;;;;;5073372;28;20024;-41
2022/12/03 04:01:11;;;;;;;9.45;3.88;;;;;;;;;;5073070;28;20024;-41
2022/12/03 04:03:37;;;;;;;14.07;3.75;;;;;;;;;;5073274;28;20028;-41
2022/12/03 04:06:03;;;;;;;7.53;3.47;;;;;;;;;;5073080;28;20036;-41
2022/12/03 04:08:28;;;;;;;10.25;5.38;;;;;;;;;;5073081;28;20028;-41
2022/12/03 04:13:37;;;;;;;6.43;3.47;;;;;;;;;;5072988;28;20039;-41
2022/12/03 04:16:03;;;;;;;8.07;4.15;;;;;;;;;;5073041;28;20021;-41
2022/12/03 04:18:43;;;;;;;6.97;3.83;;;;;;;;;;5072885;28;20077;-41
2022/12/03 04:24:01;;;;;;;5.45;3.45;;;;;;;;;;5073195;28;20032;-41
2022/12/03 04:29:10;;;;;;;11.25;5.53;;;;;;;;;;5072989;28;20024;-41
2022/12/03 04:37:04;;;;;;;9.10;4.85;;;;;;;;;;5073228;28;20051;-41
2022/12/03 04:39:29;;;;;;;6.05;2.58;;;;;;;;;;5072474;28;20474;-41
2022/12/03 04:41:55;;;;;;;8.57;4.75;;;;;;;;;;5072584;28;20040;-41
2022/12/03 04:44:32;;;;;;;7.88;4.25;;;;;;;;;;5072324;28;20016;-41
2022/12/03 04:47:01;;;;;;;5.15;2.83;;;;;;;;;;5072357;28;20048;-41
2022/12/03 04:49:27;;;;;;;10.63;2.90;;;;;;;;;;5071035;28;20477;-40
2022/12/03 04:51:52;;;;;;;4.95;3.42;;;;;;;;;;5072550;28;20028;-41
2022/12/03 04:54:18;;;;;;;7.93;3.38;;;;;;;;;;5071931;28;20534;-41
2022/12/03 04:56:43;;;;;;;6.05;4.63;;;;;;;;;;5072208;28;20046;-41
2022/12/03 04:59:09;;;;;;;9.50;4.70;;;;;;;;;;5072385;28;20021;-41
2022/12/03 05:01:34;;;;;;;7.65;4.20;;;;;;;;;;5072038;28;20078;-41
2022/12/03 05:04:00;;;;;;;7.35;3.70;;;;;;;;;;5072322;28;20025;-41
2022/12/03 05:06:25;;;;;;;8.02;4.20;;;;;;;;;;5071876;28;20399;-41
2022/12/03 05:08:50;;;;;;;6.20;2.72;;;;;;;;;;5071963;28;20020;-41
2022/12/03 05:11:16;;;;;;;10.57;3.70;;;;;;;;;;5053911;28;20033;-41
2022/12/03 05:13:41;;;;;;;4.15;2.65;;;;;;;;;;5072138;28;20039;-41
2022/12/03 05:16:07;;;;;;;3.85;2.97;;;;;;;;;;5072065;28;20024;-41
2022/12/03 05:18:32;;;;;;;3.90;2.60;;;;;;;;;;5071966;28;20085;-41
2022/12/03 05:20:57;;;;;;;5.22;3.33;;;;;;;;;;5071821;28;20024;-41
2022/12/03 05:23:23;;;;;;;4.22;2.88;;;;;;;;;;5071649;28;20027;-41
2022/12/03 05:25:48;;;;;;;6.10;2.50;;;;;;;;;;5071629;28;20040;-41
2022/12/03 05:28:13;;;;;;;4.18;2.35;;;;;;;;;;5071686;28;20375;-41
2022/12/03 05:30:39;;;;;;;6.05;3.40;;;;;;;;;;5071799;28;20041;-41
2022/12/03 05:33:04;;;;;;;4.95;3.40;;;;;;;;;;5071602;28;20021;-41
2022/12/03 05:35:30;;;;;;;7.28;4.30;;;;;;;;;;5071794;28;20078;-41
2022/12/03 05:37:55;;;;;;;5.47;2.90;;;;;;;;;;5071487;28;20012;-41
2022/12/03 05:40:21;;;;;;;7.07;4.20;;;;;;;;;;5071743;28;20024;-41
2022/12/03 05:42:52;;;;;;;4.85;3.13;;;;;;;;;;5071772;28;20021;-41
2022/12/03 05:45:18;;;;;;;3.72;2.80;;;;;;;;;;5071313;28;20437;-41
2022/12/03 05:47:43;;;;;;;13.02;3.58;;;;;;;;;;5071735;28;20459;-41
2022/12/03 05:50:09;;;;;;;6.22;2.75;;;;;;;;;;5071648;28;20033;-41
2022/12/03 05:52:34;;;;;;;3.40;2.42;;;;;;;;;;5071117;28;20565;-41
2022/12/03 05:55:00;;;;;;;6.90;3.72;;;;;;;;;;5071200;28;20118;-41
2022/12/03 05:57:27;;;;;;;7.53;4.00;;;;;;;;;;5071582;28;20033;-40
2022/12/03 05:59:52;;;;;;;7.00;3.08;;;;;;;;;;5071336;28;20521;-41
2022/12/03 06:02:18;;;;;;;7.50;2.65;;;;;;;;;;5071428;28;20451;-41
2022/12/03 06:04:43;;;;;;;2.38;1.90;;;;;;;;;;5071218;28;20048;-41
2022/12/03 06:07:08;;;;;;;3.15;2.42;;;;;;;;;;5071514;28;20079;-41
2022/12/03 06:09:34;;;;;;;3.95;2.95;;;;;;;;;;5071377;28;20028;-41
2022/12/03 06:11:59;;;;;;;4.85;3.28;;;;;;;;;;5071419;28;20077;-41
2022/12/03 06:14:25;;;;;;;4.80;2.75;;;;;;;;;;5071326;28;20032;-41
2022/12/03 06:16:50;;;;;;;4.68;2.45;;;;;;;;;;5071484;28;20017;-41
2022/12/03 06:19:16;;;;;;;5.22;3.05;;;;;;;;;;5069801;28;20036;-41
2022/12/03 06:21:41;;;;;;;5.97;3.08;;;;;;;;;;5070915;28;20025;-41
2022/12/03 06:24:07;;;;;;;5.38;2.53;;;;;;;;;;5071158;28;20107;-41
2022/12/03 06:26:32;;;;;;;6.30;3.55;;;;;;;;;;5070893;28;20032;-41
2022/12/03 06:28:57;;;;;;;3.03;2.42;;;;;;;;;;5071067;28;20096;-41
2022/12/03 06:31:23;;;;;;;6.32;3.10;;;;;;;;;;5070925;28;20393;-41
2022/12/03 06:33:48;;;;;;;5.65;2.80;;;;;;;;;;5070976;28;20029;-41
2022/12/03 06:36:13;;;;;;;6.80;2.20;;;;;;;;;;5070848;28;20024;-42
2022/12/03 06:38:39;;;;;;;5.82;3.22;;;;;;;;;;5070965;28;20029;-41
2022/12/03 06:41:04;;;;;;;3.75;2.45;;;;;;;;;;5070845;28;20032;-41
2022/12/03 06:43:30;;;;;;;4.72;2.97;;;;;;;;;;5070736;28;20032;-41
2022/12/03 06:45:55;;;;;;;3.90;2.53;;;;;;;;;;5070753;28;20119;-41
2022/12/03 06:48:22;;;;;;;2.88;2.25;;;;;;;;;;5070755;28;20036;-41
2022/12/03 06:50:48;;;;;;;3.58;2.20;;;;;;;;;;5070774;28;20073;-41
2022/12/03 06:53:13;;;;;;;5.05;3.33;;;;;;;;;;5069217;28;20029;-41
2022/12/03 06:55:39;;;;;;;1.13;0.77;;;;;;;;;;5070879;28;20036;-41
2022/12/03 06:58:04;;;;;;;3.92;2.13;;;;;;;;;;5070649;28;20025;-41
2022/12/03 07:00:30;;;;;;;2.92;1.80;;;;;;;;;;5070997;28;20020;-41
2022/12/03 07:02:55;;;;;;;2.67;1.73;;;;;;;;;;5070724;28;20036;-41
2022/12/03 07:05:21;;;;;;;5.82;2.63;;;;;;;;;;5073736;28;20475;-41
2022/12/03 07:07:50;;;;;;;6.82;3.50;;;;;;;;;;5074308;28;20577;-41
2022/12/03 07:10:17;;;;;;;6.75;3.40;;;;;;;;;;5073159;28;20398;-41
2022/12/03 07:12:42;;;;;;;3.53;1.88;;;;;;;;;;5074475;28;20032;-41
2022/12/03 07:15:08;;;;;;;7.43;3.75;;;;;;;;;;5074109;28;20016;-41
2022/12/03 07:17:34;;;;;;;4.53;1.95;;;;;;;;;;5073976;28;20035;-41
2022/12/03 07:19:59;;;;;;;5.78;3.00;;;;;;;;;;5074343;28;20078;-41
2022/12/03 07:22:24;;;;;;;6.05;3.28;;;;;;;;;;5072773;28;20032;-41
2022/12/03 07:24:50;;;;;;;4.35;2.55;;;;;;;;;;5073879;28;20471;-41
2022/12/03 07:27:15;;;;;;;4.03;1.90;;;;;;;;;;5073949;28;20074;-41
2022/12/03 07:29:41;;;;;;;4.03;2.42;;;;;;;;;;5074199;28;20020;-41
2022/12/03 07:32:06;;;;;;;2.33;1.90;;;;;;;;;;5073755;28;20487;-41
2022/12/03 07:34:32;;;;;;;3.38;2.15;;;;;;;;;;5072527;28;20070;-41
2022/12/03 07:36:58;;;;;;;4.28;2.10;;;;;;;;;;5073703;28;20028;-41
2022/12/03 07:39:24;;;;;;;4.57;2.17;;;;;;;;;;5073597;28;20050;-42
2022/12/03 07:41:49;;;;;;;4.00;2.88;;;;;;;;;;5073448;28;20032;-41
2022/12/03 07:44:15;;;;;;;2.75;1.80;;;;;;;;;;5073767;28;20024;-41
2022/12/03 07:46:40;;;;;;;3.65;1.75;;;;;;;;;;5073615;28;20032;-41
2022/12/03 07:49:06;;;;;;;4.53;2.55;;;;;;;;;;5073801;28;20016;-41
2022/12/03 07:51:31;;;;;;;3.97;2.55;;;;;;;;;;5073388;28;20115;-41
2022/12/03 07:53:57;;;;;;;4.78;2.55;;;;;;;;;;5073223;28;20049;-41
2022/12/03 07:56:22;;;;;;;2.35;1.65;;;;;;;;;;5072045;28;20043;-42
2022/12/03 07:58:48;;;;;;;3.13;1.52;;;;;;;;;;5073480;28;20020;-41
2022/12/03 08:01:13;;;;;;;3.20;2.25;;;;;;;;;;5073061;28;20115;-41
2022/12/03 08:03:41;;;;;;;3.70;2.35;;;;;;;;;;5072436;28;20175;-41
2022/12/03 08:06:07;;;;;;;2.65;1.95;;;;;;;;;;5071993;28;20066;-41
2022/12/03 08:08:33;;;;;;;2.80;1.77;;;;;;;;;;5073264;28;20033;-41
2022/12/03 08:10:59;;;;;;;5.78;2.97;;;;;;;;;;5073061;28;20058;-41
2022/12/03 08:13:25;;;;;;;2.03;1.90;;;;;;;;;;5072887;28;20099;-41
2022/12/03 08:15:51;;;;;;;3.30;1.60;;;;;;;;;;5072681;28;20025;-41
2022/12/03 08:18:18;;;;;;;3.75;2.13;;;;;;;;;;5073212;28;20039;-41
2022/12/03 08:20:45;;;;;;;2.42;1.58;;;;;;;;;;5072866;28;20039;-41
2022/12/03 08:23:22;;;;;;;1.20;1.13;;;;;;;;;;5073155;28;20021;-41
2022/12/03 08:25:48;;;;;;;3.72;1.90;;;;;;;;;;5072812;28;20032;-42
2022/12/03 08:28:15;;;;;;;1.50;1.17;;;;;;;;;;5072949;28;20016;-41
2022/12/03 08:30:42;;;;;;;4.28;1.45;;;;;;;;;;5072663;28;20028;-41
2022/12/03 08:33:24;;;;;;;2.42;1.52;;;;;;;;;;5071830;28;20211;-41
2022/12/03 08:35:50;;;;;;;2.63;1.30;;;;;;;;;;5072611;28;20029;-41
2022/12/03 08:38:17;;;;;;;1.73;1.38;;;;;;;;;;5072535;28;20265;-41
2022/12/03 08:40:44;;;;;;;3.65;1.40;;;;;;;;;;5072452;28;20036;-41
2022/12/03 08:43:20;;;;;;;4.15;1.23;;;;;;;;;;5072691;28;20107;-41
2022/12/03 08:45:48;;;;;;;4.40;1.92;;;;;;;;;;5072423;28;20036;-41
2022/12/03 08:48:19;;;;;;;3.00;1.50;;;;;;;;;;5072311;28;20020;-41
2022/12/03 08:50:45;;;;;;;2.45;1.67;;;;;;;;;;5072313;28;20500;-41
2022/12/03 08:53:29;;;;;;;1.00;0.70;;;;;;;;;;5072084;28;20016;-42
2022/12/03 08:55:56;;;;;;;1.83;1.67;;;;;;;;;;5072339;28;20032;-41
2022/12/03 08:58:22;;;;;;;2.08;1.88;;;;;;;;;;5072090;28;20029;-42
2022/12/03 09:00:51;;;;;;;4.47;1.58;;;;;;;;;;5072435;28;20067;-41
2022/12/03 09:03:18;;;;;;;1.77;1.38;;;;;;;;;;5071961;28;20052;-41
2022/12/03 09:05:43;;;;;;;2.20;1.70;;;;;;;;;;5072259;28;20044;-41
2022/12/03 09:08:09;;;;;;;1.27;1.17;;;;;;;;;;5072011;28;20036;-41
2022/12/03 09:10:34;;;;;;;2.15;1.60;;;;;;;;;;5071792;28;20107;-41
2022/12/03 09:13:00;;;;;;;0.93;0.93;;;;;;;;;;5071930;28;20370;-41
2022/12/03 09:15:25;;;;;;;2.63;1.85;;;;;;;;;;5071779;28;20421;-41
2022/12/03 09:17:51;;;;;;;0.88;0.85;;;;;;;;;;5071957;28;20070;-42
2022/12/03 09:20:16;;;;;;;6.03;2.45;;;;;;;;;;5071976;28;20531;-42
2022/12/03 09:22:42;;;;;;;3.47;1.85;;;;;;;;;;5071738;28;20394;-41
2022/12/03 09:25:07;;;;;;;1.25;1.00;;;;;;;;;;5071930;28;20120;-41
2022/12/03 09:27:33;;;;;;;1.63;1.20;;;;;;;;;;5070936;28;20396;-41
2022/12/03 09:29:58;;;;;;;3.28;2.13;;;;;;;;;;5071607;28;20036;-41
2022/12/03 09:32:24;;;;;;;2.58;1.55;;;;;;;;;;5071805;28;20033;-41
2022/12/03 09:34:50;;;;;;;2.28;1.05;;;;;;;;;;5071835;28;20099;-41
2022/12/03 09:37:15;;;;;;;3.40;1.30;;;;;;;;;;5071530;28;20025;-42
2022/12/03 09:39:41;;;;;;;2.10;1.73;;;;;;;;;;5071785;28;20375;-41
2022/12/03 09:42:06;;;;;;;2.28;1.30;;;;;;;;;;5071471;28;20379;-40
2022/12/03 09:44:33;;;;;;;3.63;1.83;;;;;;;;;;5071646;28;20039;-41
2022/12/03 09:47:01;;;;;;;1.73;1.02;;;;;;;;;;5071273;28;20020;-41
2022/12/03 09:49:29;;;;;;;1.50;1.40;;;;;;;;;;5070202;28;20028;-41
2022/12/03 09:51:55;;;;;;;1.65;1.23;;;;;;;;;;5071363;28;20017;-41
2022/12/03 09:54:25;;;;;;;4.03;1.65;;;;;;;;;;5071228;28;20044;-41
2022/12/03 09:56:52;;;;;;;1.65;0.88;;;;;;;;;;5071513;28;20121;-41
2022/12/03 09:59:34;;;;;;;0.20;0.20;;;;;;;;;;5026757;28;20056;-41
2022/12/03 10:02:00;;;;;;;1.63;1.10;;;;;;;;;;5071223;28;20129;-41
2022/12/03 10:04:26;;;;;;;3.53;1.25;;;;;;;;;;5071132;28;20482;-41
2022/12/03 10:06:51;;;;;;;0.20;0.20;;;;;;;;;;5071610;28;20037;-41
2022/12/03 10:09:20;;;;;;;2.00;1.50;;;;;;;;;;5071060;28;20017;-41
2022/12/03 10:11:46;;;;;;;1.30;1.20;;;;;;;;;;5071222;28;20024;-41
2022/12/03 10:14:13;;;;;;;2.13;1.38;;;;;;;;;;5071565;28;20024;-41
2022/12/03 10:16:39;;;;;;;1.35;1.17;;;;;;;;;;5070951;28;20544;-41
2022/12/03 10:19:05;;;;;;;0.50;0.50;;;;;;;;;;5071273;28;20016;-41
2022/12/03 10:21:33;;;;;;;1.10;0.63;;;;;;;;;;5071282;28;20049;-41
2022/12/03 10:24:14;;;;;;;1.52;1.42;;;;;;;;;;5071039;28;20058;-41
2022/12/03 10:26:39;;;;;;;1.30;1.08;;;;;;;;;;5071012;28;20040;-41
2022/12/03 10:29:17;;;;;;;1.88;1.42;;;;;;;;;;5071107;28;20017;-41
2022/12/03 10:31:43;;;;;;;1.48;1.23;;;;;;;;;;5070948;28;20072;-41
2022/12/03 10:34:09;;;;;;;1.08;0.98;;;;;;;;;;5071071;28;20074;-41
2022/12/03 10:36:34;;;;;;;1.88;1.50;;;;;;;;;;5070913;28;20032;-41
2022/12/03 10:39:11;;;;;;;1.65;1.30;;;;;;;;;;5073732;28;20108;-41
2022/12/03 10:41:38;;;;;;;1.75;0.77;;;;;;;;;;5074686;28;20029;-41
2022/12/03 10:44:11;;;;;;;1.33;1.20;;;;;;;;;;5074955;28;20024;-41
2022/12/03 10:46:37;;;;;;;1.10;1.10;;;;;;;;;;5074859;28;20110;-41
2022/12/03 10:49:10;;;;;;;1.35;1.25;;;;;;;;;;5074695;28;20459;-41
2022/12/03 10:51:35;;;;;;;;;;;;;;;;;;5074910;28;20028;-41
2022/12/03 10:54:01;;;;;;;1.00;0.80;;;;;;;;;;5074291;28;19938;-41
2022/12/03 10:56:27;;;;;;;2.10;0.75;;;;;;;;;;5074553;28;20117;-41
2022/12/03 10:58:53;;;;;;;1.08;0.95;;;;;;;;;;5074518;28;20494;-42
2022/12/03 11:01:22;;;;;;;1.35;0.95;;;;;;;;;;5074281;28;20024;-41
2022/12/03 11:03:48;;;;;;;0.80;0.70;;;;;;;;;;5074347;28;20530;-41
2022/12/03 11:06:15;;;;;;;1.00;0.90;;;;;;;;;;5074184;28;20132;-41
2022/12/03 11:08:42;;;;;;;0.30;0.30;;;;;;;;;;5074298;28;20020;-41
2022/12/03 11:11:24;;;;;;;5.30;1.20;;;;;;;;;;5074205;28;20029;-41
2022/12/03 11:13:53;;;;;;;1.27;0.90;;;;;;;;;;5074236;28;20090;-41
2022/12/03 11:16:48;;;;;;;1.40;1.17;;;;;;;;;;5074128;28;20052;-41
2022/12/03 11:19:16;;;;;;;0.98;0.77;;;;;;;;;;5036859;28;20464;-42
2022/12/03 11:22:00;;;;;;;0.90;0.88;;;;;;;;;;5074086;28;20103;-41
2022/12/03 11:24:25;;;;;;;0.75;0.75;;;;;;;;;;5073901;28;20039;-41
2022/12/03 11:26:51;;;;;;;1.23;0.88;;;;;;;;;;5074181;28;20028;-41
2022/12/03 11:29:36;;;;;;;1.60;0.82;;;;;;;;;;5073943;28;20051;-41
2022/12/03 11:32:02;;;;;;;1.20;1.02;;;;;;;;;;5073792;28;20020;-42
2022/12/03 11:34:28;;;;;;;1.25;1.05;;;;;;;;;;5074027;28;20090;-41
2022/12/03 11:37:08;;;;;;;0.88;0.88;;;;;;;;;;5073970;28;20528;-41
2022/12/03 11:39:43;;;;;;;1.23;1.08;;;;;;;;;;5073972;28;20036;-42
2022/12/03 11:42:27;;;;;;;0.47;0.47;;;;;;;;;;5073655;28;20090;-41
2022/12/03 11:45:02;;;;;;;1.60;0.77;;;;;;;;;;5073629;28;20033;-42
2022/12/03 11:47:39;;;;;;;1.30;0.82;;;;;;;;;;5073814;28;20024;-41
2022/12/03 11:50:22;;;;;;;0.60;0.60;;;;;;;;;;5073079;28;20364;-41
2022/12/03 11:52:51;;;;;;;0.75;0.75;;;;;;;;;;5073666;28;20033;-41
2022/12/03 11:55:22;;;;;;;2.88;1.10;;;;;;;;;;5073274;28;20040;-41
2022/12/03 11:57:48;;;;;;;1.48;0.90;;;;;;;;;;5073749;28;20375;-41
2022/12/03 12:00:21;;;;;;;1.05;1.02;;;;;;;;;;5073528;28;20020;-41
2022/12/03 12:02:47;;;;;;;1.17;0.57;;;;;;;;;;5073357;28;20024;-41
2022/12/03 12:05:33;;;;;;;1.13;0.70;;;;;;;;;;5073202;28;20033;-41
2022/12/03 12:07:59;;;;;;;1.10;1.10;;;;;;;;;;5065370;28;20063;-41
2022/12/03 12:10:37;;;;;;;0.77;0.77;;;;;;;;;;5073010;28;20025;-41
2022/12/03 12:13:04;;;;;;;1.42;0.98;;;;;;;;;;5073226;28;20070;-42
2022/12/03 12:15:32;;;;;;;1.50;0.93;;;;;;;;;;5072973;28;20024;-41
2022/12/03 12:18:17;;;;;;;0.95;0.70;;;;;;;;;;5073031;28;20027;-42
2022/12/03 12:20:43;;;;;;;2.67;0.82;;;;;;;;;;5072949;28;20105;-41
2022/12/03 12:23:29;;;;;;;1.20;0.90;;;;;;;;;;5071661;28;20054;-41
2022/12/03 12:26:04;;;;;;;2.30;1.10;;;;;;;;;;5071296;28;20402;-41
2022/12/03 12:28:30;;;;;;;1.42;0.57;;;;;;;;;;5073034;28;20041;-42
2022/12/03 12:30:56;;;;;;;0.80;0.70;;;;;;;;;;5072537;28;20035;-41
2022/12/03 12:33:23;;;;;;;1.67;0.80;;;;;;;;;;5072717;28;20047;-41
2022/12/03 12:35:49;;;;;;;0.60;0.60;;;;;;;;;;5072958;28;20099;-41
2022/12/03 12:38:18;;;;;;;1.55;1.20;;;;;;;;;;5072666;28;20142;-42
2022/12/03 12:40:47;;;;;;;0.68;0.68;;;;;;;;;;5072606;28;20045;-41
2022/12/03 12:43:23;;;;;;;0.90;0.63;;;;;;;;;;5072831;28;20421;-43
2022/12/03 12:45:50;;;;;;;1.55;1.15;;;;;;;;;;5072287;28;20395;-41
2022/12/03 12:48:24;;;;;;;1.35;0.80;;;;;;;;;;5072392;28;20016;-41
2022/12/03 12:50:52;;;;;;;0.50;0.50;;;;;;;;;;5072408;28;20028;-41
2022/12/03 12:53:21;;;;;;;0.50;0.50;;;;;;;;;;5072218;28;20013;-41
2022/12/03 12:55:47;;;;;;;0.93;0.52;;;;;;;;;;5072590;28;20035;-42
2022/12/03 12:58:17;;;;;;;0.68;0.60;;;;;;;;;;5072249;28;20025;-46
2022/12/03 13:00:48;;;;;;;0.60;0.60;;;;;;;;;;5072278;28;20067;-42
2022/12/03 13:03:15;;;;;;;2.33;0.77;;;;;;;;;;5071768;28;20029;-41
2022/12/03 13:05:42;;;;;;;0.77;0.68;;;;;;;;;;5071893;28;20037;-41
2022/12/03 13:08:25;;;;;;;0.50;0.50;;;;;;;;;;5072001;28;20032;-41
2022/12/03 13:10:52;;;;;;;3.08;0.88;;;;;;;;;;5072304;28;20033;-42
2022/12/03 13:13:19;;;;;;;0.70;0.70;;;;;;;;;;5072003;28;20422;-41
2022/12/03 13:16:01;;;;;;;1.17;0.82;;;;;;;;;;5072203;28;20078;-41
2022/12/03 13:18:36;;;;;;;0.60;0.60;;;;;;;;;;5070506;28;20387;-41
2022/12/03 13:21:20;;;;;;;1.00;0.80;;;;;;;;;;5071748;28;20269;-41
2022/12/03 13:23:46;;;;;;;0.73;0.50;;;;;;;;;;5072048;28;20032;-41
2022/12/03 13:26:21;;;;;;;0.68;0.50;;;;;;;;;;5071704;28;20071;-41
2022/12/03 13:28:47;;;;;;;0.70;0.70;;;;;;;;;;5071951;28;20425;-42
2022/12/03 13:31:26;;;;;;;0.75;0.75;;;;;;;;;;5071698;28;20254;-41
2022/12/03 13:33:52;;;;;;;1.02;1.02;;;;;;;;;;5071616;28;20123;-41
2022/12/03 13:36:19;;;;;;;0.63;0.63;;;;;;;;;;5071574;28;20047;-41
2022/12/03 13:38:44;;;;;;;2.03;0.82;;;;;;;;;;5071660;28;20043;-42
2022/12/03 13:44:09;;;;;;;0.90;0.70;;;;;;;;;;5071474;28;20074;-41
2022/12/03 13:46:35;;;;;;;2.15;0.82;;;;;;;;;;5070087;28;20128;-42
2022/12/03 13:49:00;;;;;;;0.57;0.57;;;;;;;;;;5071432;28;20116;-41
2022/12/03 13:51:28;;;;;;;0.40;0.40;;;;;;;;;;5071387;28;20103;-41
2022/12/03 13:53:54;;;;;;;0.80;0.80;;;;;;;;;;5069962;28;20056;-45
2022/12/03 13:56:19;;;;;;;1.02;0.93;;;;;;;;;;5071391;28;20036;-41
2022/12/03 13:58:44;;;;;;;1.45;0.90;;;;;;;;;;5070178;28;20056;-41
2022/12/03 14:01:10;;;;;;;0.98;0.88;;;;;;;;;;5071243;28;20040;-41
2022/12/03 14:03:35;;;;;;;1.05;1.00;;;;;;;;;;5071251;28;20024;-41
2022/12/03 14:06:01;;;;;;;1.25;0.85;;;;;;;;;;5071558;28;20044;-41
2022/12/03 14:08:26;;;;;;;0.93;0.80;;;;;;;;;;5071158;28;20475;-41
2022/12/03 14:10:52;;;;;;;0.70;0.70;;;;;;;;;;5071497;28;20045;-41
2022/12/03 14:13:17;;;;;;;1.77;0.68;;;;;;;;;;5073076;28;20021;-41
2022/12/03 14:15:42;;;;;;;0.60;0.60;;;;;;;;;;5075323;28;20128;-41
2022/12/03 14:18:08;;;;;;;1.13;0.70;;;;;;;;;;5075343;28;20024;-41
2022/12/03 14:20:35;;;;;;;0.55;0.55;;;;;;;;;;5075181;28;20033;-41
2022/12/03 14:23:00;;;;;;;1.05;0.95;;;;;;;;;;5075243;28;20107;-41
2022/12/03 14:25:26;;;;;;;2.60;1.05;;;;;;;;;;5074948;28;20128;-41
2022/12/03 14:27:51;;;;;;;0.95;0.73;;;;;;;;;;5075390;28;20067;-41
2022/12/03 14:30:17;;;;;;;0.77;0.77;;;;;;;;;;5073821;28;20063;-41
2022/12/03 14:32:42;;;;;;;0.60;0.60;;;;;;;;;;5074933;28;20032;-41
2022/12/03 14:35:08;;;;;;;0.77;0.70;;;;;;;;;;5075309;28;20040;-41
2022/12/03 14:37:34;;;;;;;0.70;0.70;;;;;;;;;;5074871;28;20025;-41
2022/12/03 14:40:00;;;;;;;1.30;0.77;;;;;;;;;;5074710;28;20028;-41
2022/12/03 14:42:25;;;;;;;0.68;0.68;;;;;;;;;;5074740;28;20021;-41
2022/12/03 14:44:51;;;;;;;0.90;0.80;;;;;;;;;;5074769;28;20032;-41
2022/12/03 14:47:18;;;;;;;0.57;0.57;;;;;;;;;;5074974;28;20039;-42
2022/12/03 14:49:45;;;;;;;1.10;0.98;;;;;;;;;;5074562;28;20033;-41
2022/12/03 14:52:10;;;;;;;2.40;0.75;;;;;;;;;;5074631;28;20025;-41
2022/12/03 14:54:38;;;;;;;0.68;0.68;;;;;;;;;;5074402;28;20063;-41
2022/12/03 14:57:03;;;;;;;1.23;1.00;;;;;;;;;;5074559;28;20036;-41
2022/12/03 14:59:29;;;;;;;1.00;0.85;;;;;;;;;;5074630;28;20029;-41
2022/12/03 15:01:54;;;;;;;0.93;0.82;;;;;;;;;;5074437;28;20538;-41
2022/12/03 15:04:20;;;;;;;1.15;0.82;;;;;;;;;;5074703;28;20031;-41